sensor_id;sensor_type;location;lat;lon;timestamp;pressure;altitude;pressure_sealevel;temperature;humidity
64841;BME280;51307;52.162;7.560;2023-04-01T00:00:21;98771.16;;;10.74;66.36
64841;BME280;51307;52.162;7.560;2023-04-01T00:02:47;98764.59;;;10.70;66.14
64841;BME280;51307;52.162;7.560;2023-04-01T00:05:13;98767.66;;;10.74;66.13
64841;BME280;51307;52.162;7.560;2023-04-01T00:07:39;98769.50;;;10.73;66.27
64841;BME280;51307;52.162;7.560;2023-04-01T00:10:11;98764.59;;;10.70;66.27
64841;BME280;51307;52.162;7.560;2023-04-01T00:12:38;98770.16;;;10.69;66.13
64841;BME280;51307;52.162;7.560;2023-04-01T00:15:06;98763.13;;;10.74;66.20
64841;BME280;51307;52.162;7.560;2023-04-01T00:17:32;98764.41;;;10.65;66.46
64841;BME280;51307;52.162;7.560;2023-04-01T00:19:58;98758.63;;;10.68;66.27
64841;BME280;51307;52.162;7.560;2023-04-01T00:22:25;98757.81;;;10.61;66.55
64841;BME280;51307;52.162;7.560;2023-04-01T00:24:51;98765.06;;;10.54;66.73
64841;BME280;51307;52.162;7.560;2023-04-01T00:27:17;98759.50;;;10.49;66.86
64841;BME280;51307;52.162;7.560;2023-04-01T00:29:44;98752.09;;;10.51;66.71
64841;BME280;51307;52.162;7.560;2023-04-01T00:32:10;98754.97;;;10.56;66.47
64841;BME280;51307;52.162;7.560;2023-04-01T00:34:36;98753.94;;;10.57;66.47
64841;BME280;51307;52.162;7.560;2023-04-01T00:37:02;98758.44;;;10.63;66.43
64841;BME280;51307;52.162;7.560;2023-04-01T00:39:31;98759.09;;;10.52;66.74
64841;BME280;51307;52.162;7.560;2023-04-01T00:41:58;98753.34;;;10.55;66.61
64841;BME280;51307;52.162;7.560;2023-04-01T00:44:26;98752.03;;;10.64;66.47
64841;BME280;51307;52.162;7.560;2023-04-01T00:46:52;98748.00;;;10.55;66.49
64841;BME280;51307;52.162;7.560;2023-04-01T00:49:22;98751.25;;;10.57;66.61
64841;BME280;51307;52.162;7.560;2023-04-01T00:51:53;98747.56;;;10.58;66.51
64841;BME280;51307;52.162;7.560;2023-04-01T00:54:21;98747.56;;;10.58;66.45
64841;BME280;51307;52.162;7.560;2023-04-01T00:56:55;98742.81;;;10.53;66.63
64841;BME280;51307;52.162;7.560;2023-04-01T00:59:27;98744.66;;;10.59;66.45
64841;BME280;51307;52.162;7.560;2023-04-01T01:01:55;98751.69;;;10.54;66.59
64841;BME280;51307;52.162;7.560;2023-04-01T01:04:26;98747.16;;;10.41;66.84
64841;BME280;51307;52.162;7.560;2023-04-01T01:10:34;98748.00;;;10.41;67.09
64841;BME280;51307;52.162;7.560;2023-04-01T01:13:17;98742.66;;;10.41;66.88
64841;BME280;51307;52.162;7.560;2023-04-01T01:15:59;98745.31;;;10.41;67.15
64841;BME280;51307;52.162;7.560;2023-04-01T01:24:29;98746.34;;;10.54;66.82
64841;BME280;51307;52.162;7.560;2023-04-01T01:27:04;98745.72;;;10.52;66.91
64841;BME280;51307;52.162;7.560;2023-04-01T01:37:40;98745.94;;;10.50;66.79
64841;BME280;51307;52.162;7.560;2023-04-01T01:40:11;98741.38;;;10.44;66.78
64841;BME280;51307;52.162;7.560;2023-04-01T01:42:41;98740.59;;;10.37;66.94
64841;BME280;51307;52.162;7.560;2023-04-01T01:45:10;98739.75;;;10.43;67.03
64841;BME280;51307;52.162;7.560;2023-04-01T01:47:42;98742.84;;;10.47;66.67
64841;BME280;51307;52.162;7.560;2023-04-01T01:50:09;98739.13;;;10.41;67.05
64841;BME280;51307;52.162;7.560;2023-04-01T01:52:35;98741.00;;;10.40;66.94
64841;BME280;51307;52.162;7.560;2023-04-01T01:55:01;98737.72;;;10.45;66.77
64841;BME280;51307;52.162;7.560;2023-04-01T01:57:32;98735.44;;;10.42;67.00
64841;BME280;51307;52.162;7.560;2023-04-01T02:00:05;98738.13;;;10.49;66.79
64841;BME280;51307;52.162;7.560;2023-04-01T02:02:40;98733.56;;;10.42;66.88
64841;BME280;51307;52.162;7.560;2023-04-01T02:05:10;98736.69;;;10.46;66.92
64841;BME280;51307;52.162;7.560;2023-04-01T02:07:46;98732.13;;;10.40;67.14
64841;BME280;51307;52.162;7.560;2023-04-01T02:10:14;98739.75;;;10.56;66.67
64841;BME280;51307;52.162;7.560;2023-04-01T02:12:44;98736.66;;;10.53;66.60
64841;BME280;51307;52.162;7.560;2023-04-01T02:15:15;98736.25;;;10.49;66.65
64841;BME280;51307;52.162;7.560;2023-04-01T02:17:47;98729.94;;;10.17;67.50
64841;BME280;51307;52.162;7.560;2023-04-01T02:20:21;98735.50;;;9.88;68.86
64841;BME280;51307;52.162;7.560;2023-04-01T02:22:53;98732.97;;;10.40;67.06
64841;BME280;51307;52.162;7.560;2023-04-01T02:25:34;98730.09;;;10.49;66.87
64841;BME280;51307;52.162;7.560;2023-04-01T02:28:04;98741.59;;;10.49;66.69
64841;BME280;51307;52.162;7.560;2023-04-01T02:30:35;98736.31;;;10.02;68.42
64841;BME280;51307;52.162;7.560;2023-04-01T02:33:03;98731.13;;;10.27;67.64
64841;BME280;51307;52.162;7.560;2023-04-01T02:35:29;98737.72;;;10.45;66.87
64841;BME280;51307;52.162;7.560;2023-04-01T02:37:55;98732.38;;;10.45;67.10
64841;BME280;51307;52.162;7.560;2023-04-01T02:40:21;98733.19;;;10.39;66.97
64841;BME280;51307;52.162;7.560;2023-04-01T02:42:47;98732.97;;;10.40;67.19
64841;BME280;51307;52.162;7.560;2023-04-01T02:45:14;98722.50;;;10.39;67.05
64841;BME280;51307;52.162;7.560;2023-04-01T02:47:40;98724.53;;;10.43;66.92
64841;BME280;51307;52.162;7.560;2023-04-01T02:50:06;98722.72;;;10.37;67.06
64841;BME280;51307;52.162;7.560;2023-04-01T02:52:31;98734.22;;;10.45;66.86
64841;BME280;51307;52.162;7.560;2023-04-01T02:54:58;98722.50;;;10.39;67.22
64841;BME280;51307;52.162;7.560;2023-04-01T02:57:24;98730.53;;;10.46;67.04
64841;BME280;51307;52.162;7.560;2023-04-01T02:59:50;98731.53;;;10.38;67.28
64841;BME280;51307;52.162;7.560;2023-04-01T03:02:16;98729.47;;;10.40;67.36
64841;BME280;51307;52.162;7.560;2023-04-01T03:04:42;98736.69;;;10.33;67.51
64841;BME280;51307;52.162;7.560;2023-04-01T03:07:08;98730.34;;;10.27;67.41
64841;BME280;51307;52.162;7.560;2023-04-01T03:09:36;98735.25;;;10.23;67.47
64841;BME280;51307;52.162;7.560;2023-04-01T03:12:02;98737.31;;;10.28;67.64
64841;BME280;51307;52.162;7.560;2023-04-01T03:14:28;98740.81;;;10.22;67.87
64841;BME280;51307;52.162;7.560;2023-04-01T03:16:53;98737.53;;;10.20;67.67
64841;BME280;51307;52.162;7.560;2023-04-01T03:19:18;98738.38;;;10.14;68.06
64841;BME280;51307;52.162;7.560;2023-04-01T03:21:44;98743.91;;;10.25;67.72
64841;BME280;51307;52.162;7.560;2023-04-01T03:24:10;98732.81;;;10.22;67.79
64841;BME280;51307;52.162;7.560;2023-04-01T03:26:35;98734.84;;;10.20;67.74
64841;BME280;51307;52.162;7.560;2023-04-01T03:29:01;98742.66;;;10.35;67.56
64841;BME280;51307;52.162;7.560;2023-04-01T03:31:26;98748.03;;;10.28;67.76
64841;BME280;51307;52.162;7.560;2023-04-01T03:33:52;98745.16;;;10.23;67.87
64841;BME280;51307;52.162;7.560;2023-04-01T03:36:17;98747.59;;;10.31;67.79
64841;BME280;51307;52.162;7.560;2023-04-01T03:38:44;98749.03;;;10.27;67.86
64841;BME280;51307;52.162;7.560;2023-04-01T03:41:17;98751.28;;;10.30;67.79
64841;BME280;51307;52.162;7.560;2023-04-01T03:43:44;98747.59;;;10.31;67.71
64841;BME280;51307;52.162;7.560;2023-04-01T03:46:10;98742.25;;;10.24;67.75
64841;BME280;51307;52.162;7.560;2023-04-01T03:48:36;98758.28;;;10.31;67.52
64841;BME280;51307;52.162;7.560;2023-04-01T03:51:01;98760.75;;;10.26;67.85
64841;BME280;51307;52.162;7.560;2023-04-01T03:53:27;98755.63;;;10.24;67.99
64841;BME280;51307;52.162;7.560;2023-04-01T03:55:53;98752.97;;;10.18;67.92
64841;BME280;51307;52.162;7.560;2023-04-01T03:58:19;98754.19;;;10.22;67.89
64841;BME280;51307;52.162;7.560;2023-04-01T04:00:45;98756.22;;;10.26;67.92
64841;BME280;51307;52.162;7.560;2023-04-01T04:03:11;98757.47;;;10.24;68.01
64841;BME280;51307;52.162;7.560;2023-04-01T04:05:37;98761.19;;;10.23;67.82
64841;BME280;51307;52.162;7.560;2023-04-01T04:08:03;98754.97;;;10.29;67.92
64841;BME280;51307;52.162;7.560;2023-04-01T04:10:28;98763.44;;;10.26;68.00
64841;BME280;51307;52.162;7.560;2023-04-01T04:12:55;98761.56;;;10.20;68.11
64841;BME280;51307;52.162;7.560;2023-04-01T04:15:21;98768.16;;;10.31;67.85
64841;BME280;51307;52.162;7.560;2023-04-01T04:17:47;98770.84;;;10.24;67.86
64841;BME280;51307;52.162;7.560;2023-04-01T04:20:13;98775.13;;;10.32;67.64
64841;BME280;51307;52.162;7.560;2023-04-01T04:22:39;98766.50;;;10.30;67.92
64841;BME280;51307;52.162;7.560;2023-04-01T04:25:05;98769.00;;;10.24;67.88
64841;BME280;51307;52.162;7.560;2023-04-01T04:27:31;98772.69;;;10.17;68.16
64841;BME280;51307;52.162;7.560;2023-04-01T04:29:56;98771.66;;;10.24;67.95
64841;BME280;51307;52.162;7.560;2023-04-01T04:32:22;98773.69;;;10.22;68.21
64841;BME280;51307;52.162;7.560;2023-04-01T04:34:47;98768.56;;;10.21;68.16
64841;BME280;51307;52.162;7.560;2023-04-01T04:37:13;98777.00;;;10.31;67.96
64841;BME280;51307;52.162;7.560;2023-04-01T04:39:38;98772.06;;;10.28;67.74
64841;BME280;51307;52.162;7.560;2023-04-01T04:42:05;98781.72;;;10.29;67.90
64841;BME280;51307;52.162;7.560;2023-04-01T04:44:31;98786.03;;;10.30;68.06
64841;BME280;51307;52.162;7.560;2023-04-01T04:46:56;98785.81;;;10.38;67.50
64841;BME280;51307;52.162;7.560;2023-04-01T04:49:22;98785.22;;;10.30;67.79
64841;BME280;51307;52.162;7.560;2023-04-01T04:51:47;98785.44;;;10.28;67.93
64841;BME280;51307;52.162;7.560;2023-04-01T04:54:13;98789.94;;;10.41;67.54
64841;BME280;51307;52.162;7.560;2023-04-01T04:56:38;98793.63;;;10.40;67.31
64841;BME280;51307;52.162;7.560;2023-04-01T04:59:04;98789.13;;;10.27;67.87
64841;BME280;51307;52.162;7.560;2023-04-01T05:01:30;98795.06;;;10.42;67.32
64841;BME280;51307;52.162;7.560;2023-04-01T05:03:56;98800.63;;;10.48;67.38
64841;BME280;51307;52.162;7.560;2023-04-01T05:06:21;98796.13;;;10.48;67.26
64841;BME280;51307;52.162;7.560;2023-04-01T05:08:46;98798.56;;;10.43;67.42
64841;BME280;51307;52.162;7.560;2023-04-01T05:11:15;98800.03;;;10.32;67.57
64841;BME280;51307;52.162;7.560;2023-04-01T05:13:41;98807.63;;;10.42;67.23
64841;BME280;51307;52.162;7.560;2023-04-01T05:16:13;98805.59;;;10.37;67.51
64841;BME280;51307;52.162;7.560;2023-04-01T05:18:38;98804.72;;;10.43;67.19
64841;BME280;51307;52.162;7.560;2023-04-01T05:21:06;98815.22;;;10.38;67.19
64841;BME280;51307;52.162;7.560;2023-04-01T05:23:32;98814.00;;;10.41;67.45
64841;BME280;51307;52.162;7.560;2023-04-01T05:25:58;98812.97;;;10.35;67.49
64841;BME280;51307;52.162;7.560;2023-04-01T05:28:24;98813.78;;;10.49;67.13
64841;BME280;51307;52.162;7.560;2023-04-01T05:30:49;98814.84;;;10.48;67.09
64841;BME280;51307;52.162;7.560;2023-04-01T05:33:15;98822.03;;;10.48;67.11
64841;BME280;51307;52.162;7.560;2023-04-01T05:35:41;98825.94;;;10.45;67.30
64841;BME280;51307;52.162;7.560;2023-04-01T05:38:07;98827.56;;;10.39;67.37
64841;BME280;51307;52.162;7.560;2023-04-01T05:40:33;98838.88;;;10.41;67.25
64841;BME280;51307;52.162;7.560;2023-04-01T05:42:59;98826.13;;;10.43;67.34
64841;BME280;51307;52.162;7.560;2023-04-01T05:45:24;98829.84;;;10.49;67.06
64841;BME280;51307;52.162;7.560;2023-04-01T05:47:50;98834.78;;;10.39;67.25
64841;BME280;51307;52.162;7.560;2023-04-01T05:50:28;98837.25;;;10.40;67.31
64841;BME280;51307;52.162;7.560;2023-04-01T05:52:53;98842.78;;;10.39;67.31
64841;BME280;51307;52.162;7.560;2023-04-01T05:55:19;98843.41;;;10.41;67.25
64841;BME280;51307;52.162;7.560;2023-04-01T05:57:45;98844.41;;;10.40;67.41
64841;BME280;51307;52.162;7.560;2023-04-01T06:00:12;98844.25;;;10.41;67.33
64841;BME280;51307;52.162;7.560;2023-04-01T06:02:38;98837.44;;;10.32;67.61
64841;BME280;51307;52.162;7.560;2023-04-01T06:05:14;98846.91;;;10.41;67.56
64841;BME280;51307;52.162;7.560;2023-04-01T06:07:42;98850.81;;;10.39;67.58
64841;BME280;51307;52.162;7.560;2023-04-01T06:10:19;98850.41;;;10.49;67.35
64841;BME280;51307;52.162;7.560;2023-04-01T06:13:00;98852.47;;;10.47;67.33
64841;BME280;51307;52.162;7.560;2023-04-01T06:15:51;98862.94;;;10.41;67.40
64841;BME280;51307;52.162;7.560;2023-04-01T06:18:45;98865.19;;;10.38;67.22
64841;BME280;51307;52.162;7.560;2023-04-01T06:21:43;98861.91;;;10.36;67.78
64841;BME280;51307;52.162;7.560;2023-04-01T06:30:00;98875.72;;;10.53;67.30
64841;BME280;51307;52.162;7.560;2023-04-01T06:35:05;98878.38;;;10.53;67.46
64841;BME280;51307;52.162;7.560;2023-04-01T06:43:27;98888.66;;;10.56;67.29
64841;BME280;51307;52.162;7.560;2023-04-01T06:46:28;98883.75;;;10.46;67.59
64841;BME280;51307;52.162;7.560;2023-04-01T06:54:36;98896.91;;;10.48;67.91
64841;BME280;51307;52.162;7.560;2023-04-01T06:59:47;98900.59;;;10.47;68.28
64841;BME280;51307;52.162;7.560;2023-04-01T07:04:55;98897.91;;;10.60;68.14
64841;BME280;51307;52.162;7.560;2023-04-01T07:07:35;98901.22;;;10.55;68.37
64841;BME280;51307;52.162;7.560;2023-04-01T07:10:11;98896.44;;;10.77;67.81
64841;BME280;51307;52.162;7.560;2023-04-01T07:12:46;98904.28;;;10.79;67.79
64841;BME280;51307;52.162;7.560;2023-04-01T07:15:26;98903.03;;;10.68;68.12
64841;BME280;51307;52.162;7.560;2023-04-01T07:18:01;98910.03;;;10.83;67.83
64841;BME280;51307;52.162;7.560;2023-04-01T07:20:32;98906.56;;;10.75;68.38
64841;BME280;51307;52.162;7.560;2023-04-01T07:23:00;98909.81;;;10.91;67.82
64841;BME280;51307;52.162;7.560;2023-04-01T07:25:33;98916.41;;;10.88;67.96
64841;BME280;51307;52.162;7.560;2023-04-01T07:28:06;98911.88;;;10.96;68.12
64841;BME280;51307;52.162;7.560;2023-04-01T07:39:33;98928.13;;;11.01;67.79
64841;BME280;51307;52.162;7.560;2023-04-01T07:42:17;98923.38;;;11.03;67.84
64841;BME280;51307;52.162;7.560;2023-04-01T07:48:01;98939.44;;;11.03;68.08
64841;BME280;51307;52.162;7.560;2023-04-01T07:50:35;98937.41;;;10.98;67.86
64841;BME280;51307;52.162;7.560;2023-04-01T07:53:12;98946.66;;;10.96;67.99
64841;BME280;51307;52.162;7.560;2023-04-01T08:01:36;98951.38;;;11.00;67.84
64841;BME280;51307;52.162;7.560;2023-04-01T08:04:34;98954.47;;;10.97;67.98
64841;BME280;51307;52.162;7.560;2023-04-01T08:07:17;98953.63;;;11.10;67.69
64841;BME280;51307;52.162;7.560;2023-04-01T08:10:00;98954.88;;;11.07;67.90
64841;BME280;51307;52.162;7.560;2023-04-01T08:15:56;98960.22;;;11.07;68.02
64841;BME280;51307;52.162;7.560;2023-04-01T08:21:38;98971.31;;;11.18;67.86
64841;BME280;51307;52.162;7.560;2023-04-01T08:24:42;98977.06;;;11.28;68.54
64841;BME280;51307;52.162;7.560;2023-04-01T08:30:16;98981.34;;;11.49;68.27
64841;BME280;51307;52.162;7.560;2023-04-01T08:32:47;98988.31;;;11.57;67.35
64841;BME280;51307;52.162;7.560;2023-04-01T08:35:38;98985.31;;;11.85;67.93
64841;BME280;51307;52.162;7.560;2023-04-01T08:38:13;98991.84;;;12.03;66.56
64841;BME280;51307;52.162;7.560;2023-04-01T08:41:00;98989.00;;;12.36;66.57
64841;BME280;51307;52.162;7.560;2023-04-01T08:43:45;98990.09;;;12.54;65.98
64841;BME280;51307;52.162;7.560;2023-04-01T08:52:05;98996.41;;;12.91;64.36
64841;BME280;51307;52.162;7.560;2023-04-01T08:58:35;99000.81;;;13.36;63.90
64841;BME280;51307;52.162;7.560;2023-04-01T09:00:54;99003.50;;;13.36;64.61
64841;BME280;51307;52.162;7.560;2023-04-01T09:23:26;99018.03;;;13.28;62.44
64841;BME280;51307;52.162;7.560;2023-04-01T09:40:31;99034.50;;;13.32;62.50
64841;BME280;51307;52.162;7.560;2023-04-01T09:43:27;99040.69;;;13.33;62.05
64841;BME280;51307;52.162;7.560;2023-04-01T09:46:16;99044.88;;;13.28;61.59
64841;BME280;51307;52.162;7.560;2023-04-01T10:00:15;99048.91;;;13.12;62.00
64841;BME280;51307;52.162;7.560;2023-04-01T10:19:49;99074.56;;;14.15;61.53
64841;BME280;51307;52.162;7.560;2023-04-01T10:25:18;99071.22;;;14.50;59.55
64841;BME280;51307;52.162;7.560;2023-04-01T10:33:19;99083.19;;;14.54;59.04
64841;BME280;51307;52.162;7.560;2023-04-01T10:41:31;99085.34;;;14.75;57.36
64841;BME280;51307;52.162;7.560;2023-04-01T10:44:11;99084.63;;;14.38;59.26
64841;BME280;51307;52.162;7.560;2023-04-01T10:49:56;99096.50;;;14.49;58.95
64841;BME280;51307;52.162;7.560;2023-04-01T11:15:47;99115.34;;;14.91;56.67
64841;BME280;51307;52.162;7.560;2023-04-01T11:24:02;99120.06;;;15.50;57.30
64841;BME280;51307;52.162;7.560;2023-04-01T11:29:35;99122.38;;;15.46;56.92
64841;BME280;51307;52.162;7.560;2023-04-01T11:41:41;99128.94;;;15.38;54.71
64841;BME280;51307;52.162;7.560;2023-04-01T11:44:18;99139.63;;;15.57;55.35
64841;BME280;51307;52.162;7.560;2023-04-01T11:51:54;99141.16;;;15.53;55.15
64841;BME280;51307;52.162;7.560;2023-04-01T11:54:56;99147.16;;;15.24;56.26
64841;BME280;51307;52.162;7.560;2023-04-01T12:06:05;99159.06;;;15.94;53.72
64841;BME280;51307;52.162;7.560;2023-04-01T12:08:47;99159.19;;;15.88;54.18
64841;BME280;51307;52.162;7.560;2023-04-01T12:14:20;99167.88;;;15.90;53.39
64841;BME280;51307;52.162;7.560;2023-04-01T12:19:44;99175.06;;;15.30;55.40
64841;BME280;51307;52.162;7.560;2023-04-01T12:22:28;99179.59;;;15.48;54.78
64841;BME280;51307;52.162;7.560;2023-04-01T12:28:06;99184.97;;;15.48;54.64
64841;BME280;51307;52.162;7.560;2023-04-01T12:31:04;99179.38;;;15.73;54.04
64841;BME280;51307;52.162;7.560;2023-04-01T12:36:51;99194.72;;;15.61;55.57
64841;BME280;51307;52.162;7.560;2023-04-01T12:54:16;99213.06;;;14.79;55.53
64841;BME280;51307;52.162;7.560;2023-04-01T13:08:26;99235.94;;;14.15;58.58
64841;BME280;51307;52.162;7.560;2023-04-01T13:17:02;99234.84;;;13.97;57.83
64841;BME280;51307;52.162;7.560;2023-04-01T13:19:43;99243.50;;;13.99;56.75
64841;BME280;51307;52.162;7.560;2023-04-01T13:22:23;99239.31;;;14.03;57.14
64841;BME280;51307;52.162;7.560;2023-04-01T13:27:44;99256.25;;;14.10;57.54
64841;BME280;51307;52.162;7.560;2023-04-01T13:30:37;99254.88;;;14.01;57.63
64841;BME280;51307;52.162;7.560;2023-04-01T13:33:17;99253.16;;;14.07;58.49
64841;BME280;51307;52.162;7.560;2023-04-01T13:35:50;99263.88;;;13.56;59.30
64841;BME280;51307;52.162;7.560;2023-04-01T13:46:54;99280.88;;;13.18;61.71
64841;BME280;51307;52.162;7.560;2023-04-01T13:52:44;99277.88;;;13.33;61.47
64841;BME280;51307;52.162;7.560;2023-04-01T13:58:34;99298.63;;;13.12;61.91
64841;BME280;51307;52.162;7.560;2023-04-01T14:15:04;99315.63;;;12.93;62.36
64841;BME280;51307;52.162;7.560;2023-04-01T14:17:59;99319.78;;;12.82;61.87
64841;BME280;51307;52.162;7.560;2023-04-01T14:40:05;99356.13;;;12.85;63.44
64841;BME280;51307;52.162;7.560;2023-04-01T14:50:55;99369.34;;;12.86;63.14
64841;BME280;51307;52.162;7.560;2023-04-01T14:58:21;99383.63;;;12.73;63.52
64841;BME280;51307;52.162;7.560;2023-04-01T15:24:10;99424.91;;;12.72;64.11
64841;BME280;51307;52.162;7.560;2023-04-01T15:32:19;99439.56;;;12.70;64.37
64841;BME280;51307;52.162;7.560;2023-04-01T15:35:32;99445.16;;;12.55;64.20
64841;BME280;51307;52.162;7.560;2023-04-01T15:37:45;99449.06;;;12.66;63.52
64841;BME280;51307;52.162;7.560;2023-04-01T15:45:42;99463.13;;;12.68;63.40
64841;BME280;51307;52.162;7.560;2023-04-01T15:48:23;99464.75;;;12.69;63.49
64841;BME280;51307;52.162;7.560;2023-04-01T15:51:11;99473.22;;;12.59;63.12
64841;BME280;51307;52.162;7.560;2023-04-01T15:53:42;99475.47;;;12.22;63.15
64841;BME280;51307;52.162;7.560;2023-04-01T15:56:28;99481.88;;;12.48;63.04
64841;BME280;51307;52.162;7.560;2023-04-01T16:04:50;99489.94;;;12.41;63.24
64841;BME280;51307;52.162;7.560;2023-04-01T16:13:03;99507.44;;;12.23;63.30
64841;BME280;51307;52.162;7.560;2023-04-01T16:18:42;99519.59;;;12.26;63.60
64841;BME280;51307;52.162;7.560;2023-04-01T16:21:35;99526.97;;;12.10;63.74
64841;BME280;51307;52.162;7.560;2023-04-01T16:26:55;99547.53;;;11.90;63.51
64841;BME280;51307;52.162;7.560;2023-04-01T16:29:32;99546.81;;;11.81;63.85
64841;BME280;51307;52.162;7.560;2023-04-01T16:37:11;99568.63;;;11.71;63.33
64841;BME280;51307;52.162;7.560;2023-04-01T16:39:47;99568.22;;;11.74;63.29
64841;BME280;51307;52.162;7.560;2023-04-01T16:42:38;99571.72;;;11.68;63.08
64841;BME280;51307;52.162;7.560;2023-04-01T16:45:16;99585.50;;;11.65;62.83
64841;BME280;51307;52.162;7.560;2023-04-01T16:47:52;99583.66;;;11.66;63.36
64841;BME280;51307;52.162;7.560;2023-04-01T16:50:25;99595.78;;;11.61;63.17
64841;BME280;51307;52.162;7.560;2023-04-01T16:55:56;99612.69;;;11.62;62.97
64841;BME280;51307;52.162;7.560;2023-04-01T16:58:42;99617.13;;;11.48;62.59
64841;BME280;51307;52.162;7.560;2023-04-01T17:06:54;99633.50;;;11.32;62.75
64841;BME280;51307;52.162;7.560;2023-04-01T17:15:04;99659.44;;;11.09;62.53
64841;BME280;51307;52.162;7.560;2023-04-01T17:36:38;99714.47;;;10.75;62.50
64841;BME280;51307;52.162;7.560;2023-04-01T17:42:15;99733.00;;;10.77;62.21
64841;BME280;51307;52.162;7.560;2023-04-01T17:58:18;99779.59;;;10.38;62.54
64841;BME280;51307;52.162;7.560;2023-04-01T18:06:19;99803.06;;;10.27;62.90
64841;BME280;51307;52.162;7.560;2023-04-01T18:12:13;99812.00;;;10.20;62.30
64841;BME280;51307;52.162;7.560;2023-04-01T18:17:55;99824.66;;;10.26;62.56
64841;BME280;51307;52.162;7.560;2023-04-01T18:20:43;99830.47;;;10.30;62.37
64841;BME280;51307;52.162;7.560;2023-04-01T18:23:40;99844.00;;;10.13;62.88
64841;BME280;51307;52.162;7.560;2023-04-01T18:26:18;99855.50;;;10.14;62.41
64841;BME280;51307;52.162;7.560;2023-04-01T18:31:47;99870.19;;;10.18;62.28
64841;BME280;51307;52.162;7.560;2023-04-01T18:34:43;99880.50;;;10.21;61.95
64841;BME280;51307;52.162;7.560;2023-04-01T18:37:28;99881.25;;;10.15;62.13
64841;BME280;51307;52.162;7.560;2023-04-01T18:40:35;99890.06;;;10.15;62.15
64841;BME280;51307;52.162;7.560;2023-04-01T18:45:59;99910.72;;;10.06;62.22
64841;BME280;51307;52.162;7.560;2023-04-01T18:51:10;99910.59;;;10.00;62.21
64841;BME280;51307;52.162;7.560;2023-04-01T18:53:52;99925.41;;;10.02;62.18
64841;BME280;51307;52.162;7.560;2023-04-01T18:56:33;99933.72;;;9.84;61.90
64841;BME280;51307;52.162;7.560;2023-04-01T18:59:08;99942.06;;;9.89;61.92
64841;BME280;51307;52.162;7.560;2023-04-01T19:04:41;99957.13;;;9.82;61.80
64841;BME280;51307;52.162;7.560;2023-04-01T19:10:14;99966.97;;;9.82;61.45
64841;BME280;51307;52.162;7.560;2023-04-01T19:13:01;99976.56;;;9.68;61.68
64841;BME280;51307;52.162;7.560;2023-04-01T19:18:32;99991.28;;;9.64;61.92
64841;BME280;51307;52.162;7.560;2023-04-01T19:21:29;99998.16;;;9.58;61.61
64841;BME280;51307;52.162;7.560;2023-04-01T19:40:39;100017.94;;;9.24;62.12
64841;BME280;51307;52.162;7.560;2023-04-01T19:46:23;100038.97;;;9.19;61.70
64841;BME280;51307;52.162;7.560;2023-04-01T19:49:16;100044.97;;;9.29;61.38
64841;BME280;51307;52.162;7.560;2023-04-01T19:51:56;100041.66;;;8.94;61.85
64841;BME280;51307;52.162;7.560;2023-04-01T19:54:53;100054.66;;;8.97;61.83
64841;BME280;51307;52.162;7.560;2023-04-01T19:57:27;100065.03;;;8.92;61.76
64841;BME280;51307;52.162;7.560;2023-04-01T20:05:59;100089.88;;;8.92;61.69
64841;BME280;51307;52.162;7.560;2023-04-01T20:08:12;100097.69;;;8.86;61.69
64841;BME280;51307;52.162;7.560;2023-04-01T20:10:50;100100.97;;;8.71;62.28
64841;BME280;51307;52.162;7.560;2023-04-01T20:16:14;100112.63;;;8.54;61.84
64841;BME280;51307;52.162;7.560;2023-04-01T20:18:58;100120.00;;;8.68;62.34
64841;BME280;51307;52.162;7.560;2023-04-01T20:24:33;100137.00;;;8.75;61.34
64841;BME280;51307;52.162;7.560;2023-04-01T20:27:17;100143.84;;;8.78;61.48
64841;BME280;51307;52.162;7.560;2023-04-01T20:29:53;100147.31;;;8.70;61.65
64841;BME280;51307;52.162;7.560;2023-04-01T20:43:52;100183.47;;;8.56;61.12
64841;BME280;51307;52.162;7.560;2023-04-01T20:46:34;100187.31;;;8.62;61.07
64841;BME280;51307;52.162;7.560;2023-04-01T20:51:46;100198.28;;;8.51;60.79
64841;BME280;51307;52.162;7.560;2023-04-01T21:21:50;100261.88;;;8.37;60.52
64841;BME280;51307;52.162;7.560;2023-04-01T21:32:47;100287.34;;;8.05;60.85
64841;BME280;51307;52.162;7.560;2023-04-01T21:46:18;100318.50;;;7.87;60.91
64841;BME280;51307;52.162;7.560;2023-04-01T22:05:54;100366.69;;;7.75;61.02
64841;BME280;51307;52.162;7.560;2023-04-01T22:13:52;100381.97;;;7.91;60.96
64841;BME280;51307;52.162;7.560;2023-04-01T22:16:31;100390.56;;;7.85;61.42
64841;BME280;51307;52.162;7.560;2023-04-01T22:21:44;100400.41;;;7.67;60.70
64841;BME280;51307;52.162;7.560;2023-04-01T22:30:06;100413.75;;;7.57;61.06
64841;BME280;51307;52.162;7.560;2023-04-01T22:35:23;100427.69;;;7.51;61.30
64841;BME280;51307;52.162;7.560;2023-04-01T22:40:45;100430.38;;;7.41;60.78
64841;BME280;51307;52.162;7.560;2023-04-01T22:51:49;100463.66;;;7.27;61.06
64841;BME280;51307;52.162;7.560;2023-04-01T22:54:41;100465.69;;;7.43;60.93
64841;BME280;51307;52.162;7.560;2023-04-01T22:57:12;100468.16;;;7.54;60.45
64841;BME280;51307;52.162;7.560;2023-04-01T23:00:00;100470.13;;;7.52;60.42
64841;BME280;51307;52.162;7.560;2023-04-01T23:05:57;100489.56;;;7.35;60.55
64841;BME280;51307;52.162;7.560;2023-04-01T23:11:05;100489.97;;;7.30;60.75
64841;BME280;51307;52.162;7.560;2023-04-01T23:13:38;100497.97;;;7.30;60.95
64841;BME280;51307;52.162;7.560;2023-04-01T23:16:07;100503.13;;;7.41;60.81
64841;BME280;51307;52.162;7.560;2023-04-01T23:24:15;100521.91;;;7.30;60.46
64841;BME280;51307;52.162;7.560;2023-04-01T23:26:59;100531.88;;;7.28;60.72
64841;BME280;51307;52.162;7.560;2023-04-01T23:29:27;100532.03;;;7.17;60.43
64841;BME280;51307;52.162;7.560;2023-04-01T23:31:59;100533.03;;;7.16;60.76
64841;BME280;51307;52.162;7.560;2023-04-01T23:34:31;100537.09;;;7.20;60.97
64841;BME280;51307;52.162;7.560;2023-04-01T23:37:02;100557.44;;;7.01;60.85
64841;BME280;51307;52.162;7.560;2023-04-01T23:39:35;100556.72;;;6.99;60.71